sensor_id;sensor_type;location;lat;lon;timestamp;P1;durP1;ratioP1;P2;durP2;ratioP2
67065;SDS011;53978;43.846;25.952;2022-08-01T00:00:00;1.38;;;1.20;;
67065;SDS011;53978;43.846;25.952;2022-08-01T00:02:27;4.00;;;1.25;;
67065;SDS011;53978;43.846;25.952;2022-08-01T00:04:55;1.30;;;1.20;;
67065;SDS011;53978;43.846;25.952;2022-08-01T00:07:21;1.42;;;1.33;;
67065;SDS011;53978;43.846;25.952;2022-08-01T00:09:47;1.20;;;1.10;;
67065;SDS011;53978;43.846;25.952;2022-08-01T00:12:12;2.25;;;1.27;;
67065;SDS011;53978;43.846;25.952;2022-08-01T00:14:38;1.30;;;1.20;;
67065;SDS011;53978;43.846;25.952;2022-08-01T00:17:03;1.42;;;1.20;;
67065;SDS011;53978;43.846;25.952;2022-08-01T00:19:29;1.48;;;1.23;;
67065;SDS011;53978;43.846;25.952;2022-08-01T00:21:54;3.53;;;1.20;;
67065;SDS011;53978;43.846;25.952;2022-08-01T00:24:19;1.95;;;1.10;;
67065;SDS011;53978;43.846;25.952;2022-08-01T00:26:45;1.10;;;1.00;;
67065;SDS011;53978;43.846;25.952;2022-08-01T00:29:10;1.02;;;0.93;;
67065;SDS011;53978;43.846;25.952;2022-08-01T00:31:36;1.20;;;1.10;;
67065;SDS011;53978;43.846;25.952;2022-08-01T00:34:01;2.03;;;1.10;;
67065;SDS011;53978;43.846;25.952;2022-08-01T00:36:26;1.77;;;0.90;;
67065;SDS011;53978;43.846;25.952;2022-08-01T00:38:52;0.90;;;0.90;;
67065;SDS011;53978;43.846;25.952;2022-08-01T00:41:17;1.20;;;1.10;;
67065;SDS011;53978;43.846;25.952;2022-08-01T00:43:43;1.05;;;0.95;;
67065;SDS011;53978;43.846;25.952;2022-08-01T00:46:08;0.95;;;0.95;;
67065;SDS011;53978;43.846;25.952;2022-08-01T00:48:34;1.25;;;1.15;;
67065;SDS011;53978;43.846;25.952;2022-08-01T00:50:59;1.17;;;1.10;;
67065;SDS011;53978;43.846;25.952;2022-08-01T00:53:25;1.10;;;1.00;;
67065;SDS011;53978;43.846;25.952;2022-08-01T00:55:50;7.90;;;1.15;;
67065;SDS011;53978;43.846;25.952;2022-08-01T00:58:16;2.17;;;1.10;;
67065;SDS011;53978;43.846;25.952;2022-08-01T01:00:42;1.00;;;0.90;;
67065;SDS011;53978;43.846;25.952;2022-08-01T01:03:07;1.05;;;0.95;;
67065;SDS011;53978;43.846;25.952;2022-08-01T01:05:36;1.02;;;0.80;;
67065;SDS011;53978;43.846;25.952;2022-08-01T01:08:13;2.30;;;1.20;;
67065;SDS011;53978;43.846;25.952;2022-08-01T01:10:52;1.67;;;1.10;;
67065;SDS011;53978;43.846;25.952;2022-08-01T01:15:59;1.30;;;0.98;;
67065;SDS011;53978;43.846;25.952;2022-08-01T01:31:51;1.70;;;1.08;;
67065;SDS011;53978;43.846;25.952;2022-08-01T01:34:18;1.30;;;1.20;;
67065;SDS011;53978;43.846;25.952;2022-08-01T01:36:45;7.80;;;1.10;;
67065;SDS011;53978;43.846;25.952;2022-08-01T01:39:11;6.00;;;1.00;;
67065;SDS011;53978;43.846;25.952;2022-08-01T01:41:39;1.35;;;1.00;;
67065;SDS011;53978;43.846;25.952;2022-08-01T01:44:05;1.20;;;1.10;;
67065;SDS011;53978;43.846;25.952;2022-08-01T01:46:30;1.70;;;1.00;;
67065;SDS011;53978;43.846;25.952;2022-08-01T01:48:56;0.82;;;0.82;;
67065;SDS011;53978;43.846;25.952;2022-08-01T01:51:22;1.10;;;0.98;;
67065;SDS011;53978;43.846;25.952;2022-08-01T01:53:50;2.33;;;1.00;;
67065;SDS011;53978;43.846;25.952;2022-08-01T01:56:18;0.93;;;0.90;;
67065;SDS011;53978;43.846;25.952;2022-08-01T01:58:43;5.43;;;1.23;;
67065;SDS011;53978;43.846;25.952;2022-08-01T02:01:09;2.13;;;1.02;;
67065;SDS011;53978;43.846;25.952;2022-08-01T02:03:36;2.47;;;1.30;;
67065;SDS011;53978;43.846;25.952;2022-08-01T02:06:02;0.90;;;0.90;;
67065;SDS011;53978;43.846;25.952;2022-08-01T02:08:28;2.50;;;1.00;;
67065;SDS011;53978;43.846;25.952;2022-08-01T02:10:54;1.20;;;1.02;;
67065;SDS011;53978;43.846;25.952;2022-08-01T02:13:39;1.55;;;1.20;;
67065;SDS011;53978;43.846;25.952;2022-08-01T02:16:05;0.95;;;0.88;;
67065;SDS011;53978;43.846;25.952;2022-08-01T02:18:32;1.45;;;1.13;;
67065;SDS011;53978;43.846;25.952;2022-08-01T02:20:57;1.80;;;1.00;;
67065;SDS011;53978;43.846;25.952;2022-08-01T02:23:24;1.30;;;1.08;;
67065;SDS011;53978;43.846;25.952;2022-08-01T02:25:53;1.73;;;1.10;;
67065;SDS011;53978;43.846;25.952;2022-08-01T02:28:21;4.07;;;0.98;;
67065;SDS011;53978;43.846;25.952;2022-08-01T02:30:53;2.75;;;1.00;;
67065;SDS011;53978;43.846;25.952;2022-08-01T02:33:23;3.17;;;1.05;;
67065;SDS011;53978;43.846;25.952;2022-08-01T02:35:50;1.20;;;1.02;;
67065;SDS011;53978;43.846;25.952;2022-08-01T02:38:18;0.90;;;0.90;;
67065;SDS011;53978;43.846;25.952;2022-08-01T02:40:46;1.02;;;0.93;;
67065;SDS011;53978;43.846;25.952;2022-08-01T02:43:12;8.10;;;2.20;;
67065;SDS011;53978;43.846;25.952;2022-08-01T02:45:42;10.88;;;1.50;;
67065;SDS011;53978;43.846;25.952;2022-08-01T02:48:10;3.97;;;1.33;;
67065;SDS011;53978;43.846;25.952;2022-08-01T02:50:38;1.40;;;1.10;;
67065;SDS011;53978;43.846;25.952;2022-08-01T02:53:05;3.25;;;1.02;;
67065;SDS011;53978;43.846;25.952;2022-08-01T02:55:31;26.63;;;3.97;;
67065;SDS011;53978;43.846;25.952;2022-08-01T02:57:57;4.07;;;1.90;;
67065;SDS011;53978;43.846;25.952;2022-08-01T03:00:24;2.90;;;1.13;;
67065;SDS011;53978;43.846;25.952;2022-08-01T03:02:50;6.50;;;1.30;;
67065;SDS011;53978;43.846;25.952;2022-08-01T03:05:16;1.33;;;0.95;;
67065;SDS011;53978;43.846;25.952;2022-08-01T03:07:42;2.17;;;1.20;;
67065;SDS011;53978;43.846;25.952;2022-08-01T03:10:08;1.25;;;1.00;;
67065;SDS011;53978;43.846;25.952;2022-08-01T03:12:34;2.60;;;1.30;;
67065;SDS011;53978;43.846;25.952;2022-08-01T03:15:02;1.58;;;1.40;;
67065;SDS011;53978;43.846;25.952;2022-08-01T03:17:28;1.98;;;1.20;;
67065;SDS011;53978;43.846;25.952;2022-08-01T03:19:54;1.70;;;1.10;;
67065;SDS011;53978;43.846;25.952;2022-08-01T03:22:21;1.30;;;1.20;;
67065;SDS011;53978;43.846;25.952;2022-08-01T03:24:49;1.27;;;1.17;;
67065;SDS011;53978;43.846;25.952;2022-08-01T03:27:17;1.30;;;1.08;;
67065;SDS011;53978;43.846;25.952;2022-08-01T03:29:44;3.55;;;1.10;;
67065;SDS011;53978;43.846;25.952;2022-08-01T03:32:10;3.38;;;1.30;;
67065;SDS011;53978;43.846;25.952;2022-08-01T03:34:37;4.35;;;1.52;;
67065;SDS011;53978;43.846;25.952;2022-08-01T03:37:03;3.53;;;1.40;;
67065;SDS011;53978;43.846;25.952;2022-08-01T03:39:34;3.97;;;1.50;;
67065;SDS011;53978;43.846;25.952;2022-08-01T03:42:05;3.75;;;1.33;;
67065;SDS011;53978;43.846;25.952;2022-08-01T03:44:35;2.75;;;1.33;;
67065;SDS011;53978;43.846;25.952;2022-08-01T03:47:05;1.88;;;1.38;;
67065;SDS011;53978;43.846;25.952;2022-08-01T03:49:33;2.83;;;1.60;;
67065;SDS011;53978;43.846;25.952;2022-08-01T03:52:01;2.28;;;1.75;;
67065;SDS011;53978;43.846;25.952;2022-08-01T03:54:28;1.88;;;1.77;;
67065;SDS011;53978;43.846;25.952;2022-08-01T03:56:56;3.83;;;1.48;;
67065;SDS011;53978;43.846;25.952;2022-08-01T03:59:22;1.75;;;1.42;;
67065;SDS011;53978;43.846;25.952;2022-08-01T04:01:48;1.55;;;1.45;;
67065;SDS011;53978;43.846;25.952;2022-08-01T04:04:13;2.72;;;1.58;;
67065;SDS011;53978;43.846;25.952;2022-08-01T04:06:39;2.90;;;1.63;;
67065;SDS011;53978;43.846;25.952;2022-08-01T04:09:09;5.25;;;1.42;;
67065;SDS011;53978;43.846;25.952;2022-08-01T04:11:35;1.50;;;1.40;;
67065;SDS011;53978;43.846;25.952;2022-08-01T04:14:00;4.13;;;1.40;;
67065;SDS011;53978;43.846;25.952;2022-08-01T04:16:26;4.35;;;1.50;;
67065;SDS011;53978;43.846;25.952;2022-08-01T04:18:51;2.05;;;1.50;;
67065;SDS011;53978;43.846;25.952;2022-08-01T04:21:24;3.65;;;1.30;;
67065;SDS011;53978;43.846;25.952;2022-08-01T04:23:52;6.28;;;1.38;;
67065;SDS011;53978;43.846;25.952;2022-08-01T04:26:19;3.35;;;1.50;;
67065;SDS011;53978;43.846;25.952;2022-08-01T04:28:46;2.85;;;1.52;;
67065;SDS011;53978;43.846;25.952;2022-08-01T04:31:15;6.93;;;1.55;;
67065;SDS011;53978;43.846;25.952;2022-08-01T04:33:42;1.90;;;1.58;;
67065;SDS011;53978;43.846;25.952;2022-08-01T04:36:10;2.05;;;1.60;;
67065;SDS011;53978;43.846;25.952;2022-08-01T04:38:37;3.40;;;1.67;;
67065;SDS011;53978;43.846;25.952;2022-08-01T04:41:03;2.35;;;2.17;;
67065;SDS011;53978;43.846;25.952;2022-08-01T04:43:31;5.40;;;1.90;;
67065;SDS011;53978;43.846;25.952;2022-08-01T04:45:57;6.00;;;1.73;;
67065;SDS011;53978;43.846;25.952;2022-08-01T04:48:23;5.22;;;1.73;;
67065;SDS011;53978;43.846;25.952;2022-08-01T04:50:50;3.05;;;1.88;;
67065;SDS011;53978;43.846;25.952;2022-08-01T04:53:16;2.67;;;1.70;;
67065;SDS011;53978;43.846;25.952;2022-08-01T04:55:43;13.45;;;2.33;;
67065;SDS011;53978;43.846;25.952;2022-08-01T04:58:09;17.48;;;2.75;;
67065;SDS011;53978;43.846;25.952;2022-08-01T05:00:35;20.30;;;2.20;;
67065;SDS011;53978;43.846;25.952;2022-08-01T05:03:02;16.92;;;2.08;;
67065;SDS011;53978;43.846;25.952;2022-08-01T05:05:27;5.40;;;2.30;;
67065;SDS011;53978;43.846;25.952;2022-08-01T05:07:53;3.92;;;1.40;;
67065;SDS011;53978;43.846;25.952;2022-08-01T05:10:18;7.93;;;1.60;;
67065;SDS011;53978;43.846;25.952;2022-08-01T05:12:44;3.15;;;1.40;;
67065;SDS011;53978;43.846;25.952;2022-08-01T05:15:11;3.75;;;1.55;;
67065;SDS011;53978;43.846;25.952;2022-08-01T05:17:37;5.65;;;1.60;;
67065;SDS011;53978;43.846;25.952;2022-08-01T05:20:02;5.00;;;1.42;;
67065;SDS011;53978;43.846;25.952;2022-08-01T05:22:28;5.07;;;1.33;;
67065;SDS011;53978;43.846;25.952;2022-08-01T05:24:54;5.97;;;1.42;;
67065;SDS011;53978;43.846;25.952;2022-08-01T05:27:19;2.92;;;1.45;;
67065;SDS011;53978;43.846;25.952;2022-08-01T05:29:45;3.08;;;1.30;;
67065;SDS011;53978;43.846;25.952;2022-08-01T05:32:10;4.57;;;1.58;;
67065;SDS011;53978;43.846;25.952;2022-08-01T05:34:35;2.90;;;1.30;;
67065;SDS011;53978;43.846;25.952;2022-08-01T05:37:01;5.55;;;1.38;;
67065;SDS011;53978;43.846;25.952;2022-08-01T05:39:26;3.75;;;1.40;;
67065;SDS011;53978;43.846;25.952;2022-08-01T05:41:52;1.30;;;1.20;;
67065;SDS011;53978;43.846;25.952;2022-08-01T05:44:17;8.32;;;1.52;;
67065;SDS011;53978;43.846;25.952;2022-08-01T05:46:43;3.55;;;1.50;;
67065;SDS011;53978;43.846;25.952;2022-08-01T05:49:08;4.88;;;1.40;;
67065;SDS011;53978;43.846;25.952;2022-08-01T05:51:34;3.90;;;1.70;;
67065;SDS011;53978;43.846;25.952;2022-08-01T05:54:00;2.60;;;1.52;;
67065;SDS011;53978;43.846;25.952;2022-08-01T05:56:25;3.85;;;1.20;;
67065;SDS011;53978;43.846;25.952;2022-08-01T05:58:51;3.80;;;1.40;;
67065;SDS011;53978;43.846;25.952;2022-08-01T06:01:18;1.52;;;1.30;;
67065;SDS011;53978;43.846;25.952;2022-08-01T06:03:43;2.97;;;1.20;;
67065;SDS011;53978;43.846;25.952;2022-08-01T06:06:09;2.83;;;1.45;;
67065;SDS011;53978;43.846;25.952;2022-08-01T06:08:35;3.55;;;1.45;;
67065;SDS011;53978;43.846;25.952;2022-08-01T06:11:00;7.10;;;1.20;;
67065;SDS011;53978;43.846;25.952;2022-08-01T06:13:26;3.97;;;1.35;;
67065;SDS011;53978;43.846;25.952;2022-08-01T06:15:51;3.75;;;1.30;;
67065;SDS011;53978;43.846;25.952;2022-08-01T06:18:17;1.20;;;1.10;;
67065;SDS011;53978;43.846;25.952;2022-08-01T06:20:42;2.13;;;1.30;;
67065;SDS011;53978;43.846;25.952;2022-08-01T06:23:08;5.20;;;1.80;;
67065;SDS011;53978;43.846;25.952;2022-08-01T06:25:34;11.52;;;2.03;;
67065;SDS011;53978;43.846;25.952;2022-08-01T06:28:00;2.47;;;1.52;;
67065;SDS011;53978;43.846;25.952;2022-08-01T06:30:25;1.30;;;1.20;;
67065;SDS011;53978;43.846;25.952;2022-08-01T06:32:51;2.92;;;1.30;;
67065;SDS011;53978;43.846;25.952;2022-08-01T06:35:16;2.83;;;1.40;;
67065;SDS011;53978;43.846;25.952;2022-08-01T06:37:42;4.75;;;1.40;;
67065;SDS011;53978;43.846;25.952;2022-08-01T06:40:10;1.52;;;1.25;;
67065;SDS011;53978;43.846;25.952;2022-08-01T06:42:36;1.33;;;1.23;;
67065;SDS011;53978;43.846;25.952;2022-08-01T06:45:06;3.78;;;1.52;;
67065;SDS011;53978;43.846;25.952;2022-08-01T06:47:33;3.38;;;1.27;;
67065;SDS011;53978;43.846;25.952;2022-08-01T06:49:58;3.35;;;1.30;;
67065;SDS011;53978;43.846;25.952;2022-08-01T06:52:24;2.83;;;1.30;;
67065;SDS011;53978;43.846;25.952;2022-08-01T06:54:49;1.30;;;1.20;;
67065;SDS011;53978;43.846;25.952;2022-08-01T06:57:15;2.15;;;1.23;;
67065;SDS011;53978;43.846;25.952;2022-08-01T06:59:41;1.80;;;1.00;;
67065;SDS011;53978;43.846;25.952;2022-08-01T07:02:06;1.83;;;1.50;;
67065;SDS011;53978;43.846;25.952;2022-08-01T07:04:32;11.90;;;1.73;;
67065;SDS011;53978;43.846;25.952;2022-08-01T07:06:58;6.30;;;1.92;;
67065;SDS011;53978;43.846;25.952;2022-08-01T07:09:23;1.88;;;1.50;;
67065;SDS011;53978;43.846;25.952;2022-08-01T07:11:49;2.80;;;1.63;;
67065;SDS011;53978;43.846;25.952;2022-08-01T07:14:15;2.17;;;1.50;;
67065;SDS011;53978;43.846;25.952;2022-08-01T07:16:41;2.13;;;1.50;;
67065;SDS011;53978;43.846;25.952;2022-08-01T07:19:06;1.70;;;1.60;;
67065;SDS011;53978;43.846;25.952;2022-08-01T07:21:32;2.45;;;1.60;;
67065;SDS011;53978;43.846;25.952;2022-08-01T07:23:58;3.33;;;1.67;;
67065;SDS011;53978;43.846;25.952;2022-08-01T07:26:24;2.55;;;1.60;;
67065;SDS011;53978;43.846;25.952;2022-08-01T07:28:49;3.45;;;2.25;;
67065;SDS011;53978;43.846;25.952;2022-08-01T07:31:14;2.55;;;2.20;;
67065;SDS011;53978;43.846;25.952;2022-08-01T07:33:40;5.28;;;2.00;;
67065;SDS011;53978;43.846;25.952;2022-08-01T07:36:05;4.95;;;1.90;;
67065;SDS011;53978;43.846;25.952;2022-08-01T07:38:31;2.13;;;1.92;;
67065;SDS011;53978;43.846;25.952;2022-08-01T07:40:56;2.97;;;1.90;;
67065;SDS011;53978;43.846;25.952;2022-08-01T07:43:22;3.00;;;2.13;;
67065;SDS011;53978;43.846;25.952;2022-08-01T07:45:47;2.55;;;2.08;;
67065;SDS011;53978;43.846;25.952;2022-08-01T07:48:13;2.80;;;2.45;;
67065;SDS011;53978;43.846;25.952;2022-08-01T07:50:38;4.78;;;2.38;;
67065;SDS011;53978;43.846;25.952;2022-08-01T07:53:03;3.67;;;2.30;;
67065;SDS011;53978;43.846;25.952;2022-08-01T07:55:29;5.00;;;2.60;;
67065;SDS011;53978;43.846;25.952;2022-08-01T07:57:54;3.92;;;2.88;;
67065;SDS011;53978;43.846;25.952;2022-08-01T08:00:20;2.83;;;2.63;;
67065;SDS011;53978;43.846;25.952;2022-08-01T08:02:45;3.30;;;3.00;;
67065;SDS011;53978;43.846;25.952;2022-08-01T08:05:11;3.47;;;3.17;;
67065;SDS011;53978;43.846;25.952;2022-08-01T08:07:37;3.20;;;3.00;;
67065;SDS011;53978;43.846;25.952;2022-08-01T08:10:03;3.58;;;3.13;;
67065;SDS011;53978;43.846;25.952;2022-08-01T08:12:29;4.90;;;3.28;;
67065;SDS011;53978;43.846;25.952;2022-08-01T08:14:56;3.55;;;3.25;;
67065;SDS011;53978;43.846;25.952;2022-08-01T08:17:24;3.58;;;3.03;;
67065;SDS011;53978;43.846;25.952;2022-08-01T08:19:50;3.75;;;3.40;;
67065;SDS011;53978;43.846;25.952;2022-08-01T08:22:15;3.20;;;2.90;;
67065;SDS011;53978;43.846;25.952;2022-08-01T08:24:40;3.70;;;3.20;;
67065;SDS011;53978;43.846;25.952;2022-08-01T08:27:06;4.75;;;2.90;;
67065;SDS011;53978;43.846;25.952;2022-08-01T08:29:32;3.40;;;2.60;;
67065;SDS011;53978;43.846;25.952;2022-08-01T08:31:58;3.13;;;2.85;;
67065;SDS011;53978;43.846;25.952;2022-08-01T08:34:25;3.00;;;2.53;;
67065;SDS011;53978;43.846;25.952;2022-08-01T08:36:51;2.70;;;2.50;;
67065;SDS011;53978;43.846;25.952;2022-08-01T08:39:17;3.03;;;2.70;;
67065;SDS011;53978;43.846;25.952;2022-08-01T08:41:42;4.40;;;2.67;;
67065;SDS011;53978;43.846;25.952;2022-08-01T08:44:08;3.17;;;2.60;;
67065;SDS011;53978;43.846;25.952;2022-08-01T08:46:37;3.83;;;2.83;;
67065;SDS011;53978;43.846;25.952;2022-08-01T08:49:06;5.43;;;2.67;;
67065;SDS011;53978;43.846;25.952;2022-08-01T08:51:32;2.95;;;2.70;;
67065;SDS011;53978;43.846;25.952;2022-08-01T08:53:59;2.95;;;2.60;;
67065;SDS011;53978;43.846;25.952;2022-08-01T08:56:25;2.38;;;2.17;;
67065;SDS011;53978;43.846;25.952;2022-08-01T08:58:55;5.20;;;2.10;;
67065;SDS011;53978;43.846;25.952;2022-08-01T09:01:21;2.35;;;2.15;;
67065;SDS011;53978;43.846;25.952;2022-08-01T09:03:47;1.90;;;1.80;;
67065;SDS011;53978;43.846;25.952;2022-08-01T09:06:12;2.10;;;1.90;;
67065;SDS011;53978;43.846;25.952;2022-08-01T09:08:39;2.25;;;1.90;;
67065;SDS011;53978;43.846;25.952;2022-08-01T09:11:05;4.90;;;2.10;;
67065;SDS011;53978;43.846;25.952;2022-08-01T09:13:30;3.17;;;1.70;;
67065;SDS011;53978;43.846;25.952;2022-08-01T09:15:56;3.10;;;2.28;;
67065;SDS011;53978;43.846;25.952;2022-08-01T09:18:28;2.80;;;1.95;;
67065;SDS011;53978;43.846;25.952;2022-08-01T09:21:12;4.82;;;1.83;;
67065;SDS011;53978;43.846;25.952;2022-08-01T09:23:46;2.78;;;2.00;;
67065;SDS011;53978;43.846;25.952;2022-08-01T09:26:30;1.70;;;1.60;;
67065;SDS011;53978;43.846;25.952;2022-08-01T09:29:00;1.70;;;1.58;;
67065;SDS011;53978;43.846;25.952;2022-08-01T09:31:28;5.10;;;1.60;;
67065;SDS011;53978;43.846;25.952;2022-08-01T09:33:55;1.70;;;1.60;;
67065;SDS011;53978;43.846;25.952;2022-08-01T09:36:26;3.08;;;1.63;;
67065;SDS011;53978;43.846;25.952;2022-08-01T09:38:53;2.00;;;1.80;;
67065;SDS011;53978;43.846;25.952;2022-08-01T09:41:28;1.73;;;1.63;;
67065;SDS011;53978;43.846;25.952;2022-08-01T09:43:56;2.00;;;1.80;;
67065;SDS011;53978;43.846;25.952;2022-08-01T09:46:22;2.08;;;1.88;;
67065;SDS011;53978;43.846;25.952;2022-08-01T09:48:54;4.28;;;2.08;;
67065;SDS011;53978;43.846;25.952;2022-08-01T09:51:54;2.55;;;2.10;;
67065;SDS011;53978;43.846;25.952;2022-08-01T09:54:13;2.75;;;2.15;;
67065;SDS011;53978;43.846;25.952;2022-08-01T09:56:53;7.30;;;2.08;;
67065;SDS011;53978;43.846;25.952;2022-08-01T09:59:18;6.97;;;2.05;;
67065;SDS011;53978;43.846;25.952;2022-08-01T10:01:45;2.70;;;1.60;;
67065;SDS011;53978;43.846;25.952;2022-08-01T10:04:15;2.17;;;1.98;;
67065;SDS011;53978;43.846;25.952;2022-08-01T10:06:46;2.13;;;1.90;;
67065;SDS011;53978;43.846;25.952;2022-08-01T10:09:25;4.32;;;1.70;;
67065;SDS011;53978;43.846;25.952;2022-08-01T10:11:52;4.00;;;1.90;;
67065;SDS011;53978;43.846;25.952;2022-08-01T10:14:20;2.60;;;1.92;;
67065;SDS011;53978;43.846;25.952;2022-08-01T10:16:47;3.35;;;1.80;;
67065;SDS011;53978;43.846;25.952;2022-08-01T10:19:13;5.75;;;1.70;;
67065;SDS011;53978;43.846;25.952;2022-08-01T10:21:38;4.93;;;2.00;;
67065;SDS011;53978;43.846;25.952;2022-08-01T10:24:04;2.40;;;1.90;;
67065;SDS011;53978;43.846;25.952;2022-08-01T10:26:32;1.88;;;1.70;;
67065;SDS011;53978;43.846;25.952;2022-08-01T10:28:58;2.13;;;1.70;;
67065;SDS011;53978;43.846;25.952;2022-08-01T10:31:24;2.10;;;1.90;;
67065;SDS011;53978;43.846;25.952;2022-08-01T10:33:50;2.10;;;1.90;;
67065;SDS011;53978;43.846;25.952;2022-08-01T10:36:22;3.10;;;1.58;;
67065;SDS011;53978;43.846;25.952;2022-08-01T10:38:48;3.33;;;2.40;;
67065;SDS011;53978;43.846;25.952;2022-08-01T10:41:14;10.65;;;3.20;;
67065;SDS011;53978;43.846;25.952;2022-08-01T10:43:40;2.97;;;2.78;;
67065;SDS011;53978;43.846;25.952;2022-08-01T10:46:06;3.55;;;3.10;;
67065;SDS011;53978;43.846;25.952;2022-08-01T10:51:10;4.28;;;3.28;;
67065;SDS011;53978;43.846;25.952;2022-08-01T10:53:35;3.95;;;3.08;;
67065;SDS011;53978;43.846;25.952;2022-08-01T10:56:03;5.53;;;3.30;;
67065;SDS011;53978;43.846;25.952;2022-08-01T10:58:34;3.22;;;2.92;;
67065;SDS011;53978;43.846;25.952;2022-08-01T11:01:16;3.80;;;3.00;;
67065;SDS011;53978;43.846;25.952;2022-08-01T11:06:28;4.13;;;2.85;;
67065;SDS011;53978;43.846;25.952;2022-08-01T11:08:58;3.53;;;2.50;;
67065;SDS011;53978;43.846;25.952;2022-08-01T11:11:26;3.35;;;2.70;;
67065;SDS011;53978;43.846;25.952;2022-08-01T11:16:30;2.65;;;2.20;;
67065;SDS011;53978;43.846;25.952;2022-08-01T11:18:56;2.42;;;2.17;;
67065;SDS011;53978;43.846;25.952;2022-08-01T11:21:21;2.47;;;2.28;;
67065;SDS011;53978;43.846;25.952;2022-08-01T11:23:51;3.35;;;2.20;;
67065;SDS011;53978;43.846;25.952;2022-08-01T11:26:18;2.40;;;2.20;;
67065;SDS011;53978;43.846;25.952;2022-08-01T11:28:44;4.28;;;2.03;;
67065;SDS011;53978;43.846;25.952;2022-08-01T11:38:35;2.22;;;2.03;;
67065;SDS011;53978;43.846;25.952;2022-08-01T11:44:22;5.40;;;2.05;;
67065;SDS011;53978;43.846;25.952;2022-08-01T11:49:27;6.35;;;2.17;;
67065;SDS011;53978;43.846;25.952;2022-08-01T11:54:35;3.28;;;1.88;;
67065;SDS011;53978;43.846;25.952;2022-08-01T11:57:07;2.30;;;1.70;;
67065;SDS011;53978;43.846;25.952;2022-08-01T11:59:44;5.65;;;2.25;;
67065;SDS011;53978;43.846;25.952;2022-08-01T12:04:46;1.30;;;1.20;;
67065;SDS011;53978;43.846;25.952;2022-08-01T12:07:33;1.60;;;1.10;;
67065;SDS011;53978;43.846;25.952;2022-08-01T12:10:04;1.33;;;1.15;;
67065;SDS011;53978;43.846;25.952;2022-08-01T12:12:31;2.38;;;1.13;;
67065;SDS011;53978;43.846;25.952;2022-08-01T12:14:58;3.15;;;1.17;;
67065;SDS011;53978;43.846;25.952;2022-08-01T12:17:32;1.10;;;1.00;;
67065;SDS011;53978;43.846;25.952;2022-08-01T12:20:03;1.88;;;1.40;;
67065;SDS011;53978;43.846;25.952;2022-08-01T12:22:30;1.27;;;1.17;;
67065;SDS011;53978;43.846;25.952;2022-08-01T12:24:55;1.13;;;1.00;;
67065;SDS011;53978;43.846;25.952;2022-08-01T12:27:28;1.83;;;1.10;;
67065;SDS011;53978;43.846;25.952;2022-08-01T12:29:55;2.47;;;1.25;;
67065;SDS011;53978;43.846;25.952;2022-08-01T12:34:56;2.30;;;1.20;;
67065;SDS011;53978;43.846;25.952;2022-08-01T12:37:25;1.85;;;1.00;;
67065;SDS011;53978;43.846;25.952;2022-08-01T12:39:51;1.10;;;1.00;;
67065;SDS011;53978;43.846;25.952;2022-08-01T12:42:17;2.35;;;1.17;;
67065;SDS011;53978;43.846;25.952;2022-08-01T12:44:43;2.30;;;0.98;;
67065;SDS011;53978;43.846;25.952;2022-08-01T12:47:10;2.10;;;1.15;;
67065;SDS011;53978;43.846;25.952;2022-08-01T12:49:36;1.27;;;1.17;;
67065;SDS011;53978;43.846;25.952;2022-08-01T12:52:02;4.20;;;1.00;;
67065;SDS011;53978;43.846;25.952;2022-08-01T12:54:28;0.93;;;0.90;;
67065;SDS011;53978;43.846;25.952;2022-08-01T12:56:54;0.90;;;0.90;;
67065;SDS011;53978;43.846;25.952;2022-08-01T12:59:23;1.30;;;1.20;;
67065;SDS011;53978;43.846;25.952;2022-08-01T13:01:51;2.30;;;1.20;;
67065;SDS011;53978;43.846;25.952;2022-08-01T13:04:17;1.40;;;1.30;;
67065;SDS011;53978;43.846;25.952;2022-08-01T13:06:43;1.23;;;1.13;;
67065;SDS011;53978;43.846;25.952;2022-08-01T13:09:09;0.90;;;0.90;;
67065;SDS011;53978;43.846;25.952;2022-08-01T13:11:38;2.13;;;1.30;;
67065;SDS011;53978;43.846;25.952;2022-08-01T13:14:05;2.85;;;1.10;;
67065;SDS011;53978;43.846;25.952;2022-08-01T13:16:31;1.45;;;1.00;;
67065;SDS011;53978;43.846;25.952;2022-08-01T13:18:57;1.20;;;1.10;;
67065;SDS011;53978;43.846;25.952;2022-08-01T13:21:24;1.27;;;1.17;;
67065;SDS011;53978;43.846;25.952;2022-08-01T13:24:07;0.93;;;0.93;;
67065;SDS011;53978;43.846;25.952;2022-08-01T13:29:05;2.17;;;1.40;;
67065;SDS011;53978;43.846;25.952;2022-08-01T13:31:33;1.10;;;1.00;;
67065;SDS011;53978;43.846;25.952;2022-08-01T13:33:59;1.10;;;1.10;;
67065;SDS011;53978;43.846;25.952;2022-08-01T13:36:24;2.95;;;1.00;;
67065;SDS011;53978;43.846;25.952;2022-08-01T13:38:54;2.00;;;1.10;;
67065;SDS011;53978;43.846;25.952;2022-08-01T13:41:38;1.05;;;0.98;;
67065;SDS011;53978;43.846;25.952;2022-08-01T13:44:03;0.90;;;0.90;;
67065;SDS011;53978;43.846;25.952;2022-08-01T13:46:29;1.15;;;1.08;;
67065;SDS011;53978;43.846;25.952;2022-08-01T13:48:56;1.58;;;1.00;;
67065;SDS011;53978;43.846;25.952;2022-08-01T13:51:21;1.05;;;0.95;;
67065;SDS011;53978;43.846;25.952;2022-08-01T13:53:47;0.90;;;0.90;;
67065;SDS011;53978;43.846;25.952;2022-08-01T13:56:12;1.00;;;1.00;;
67065;SDS011;53978;43.846;25.952;2022-08-01T13:58:37;0.93;;;0.90;;
67065;SDS011;53978;43.846;25.952;2022-08-01T14:01:03;5.00;;;0.98;;
67065;SDS011;53978;43.846;25.952;2022-08-01T14:03:29;1.33;;;1.05;;
67065;SDS011;53978;43.846;25.952;2022-08-01T14:05:55;1.35;;;1.15;;
67065;SDS011;53978;43.846;25.952;2022-08-01T14:08:21;1.30;;;1.00;;
67065;SDS011;53978;43.846;25.952;2022-08-01T14:10:46;1.30;;;1.10;;
67065;SDS011;53978;43.846;25.952;2022-08-01T14:13:12;4.55;;;1.10;;
67065;SDS011;53978;43.846;25.952;2022-08-01T14:15:38;1.10;;;1.00;;
67065;SDS011;53978;43.846;25.952;2022-08-01T14:18:03;0.90;;;0.90;;
67065;SDS011;53978;43.846;25.952;2022-08-01T14:20:29;1.75;;;1.45;;
67065;SDS011;53978;43.846;25.952;2022-08-01T14:22:55;1.50;;;1.40;;
67065;SDS011;53978;43.846;25.952;2022-08-01T14:25:20;2.60;;;1.38;;
67065;SDS011;53978;43.846;25.952;2022-08-01T14:27:46;1.55;;;1.20;;
67065;SDS011;53978;43.846;25.952;2022-08-01T14:30:13;1.40;;;1.30;;
67065;SDS011;53978;43.846;25.952;2022-08-01T14:32:38;2.17;;;1.60;;
67065;SDS011;53978;43.846;25.952;2022-08-01T14:35:05;2.85;;;1.30;;
67065;SDS011;53978;43.846;25.952;2022-08-01T14:37:31;5.90;;;1.60;;
67065;SDS011;53978;43.846;25.952;2022-08-01T14:39:58;2.47;;;1.60;;
67065;SDS011;53978;43.846;25.952;2022-08-01T14:42:24;1.67;;;1.40;;
67065;SDS011;53978;43.846;25.952;2022-08-01T14:44:50;1.55;;;1.05;;
67065;SDS011;53978;43.846;25.952;2022-08-01T14:47:16;1.27;;;1.17;;
67065;SDS011;53978;43.846;25.952;2022-08-01T14:49:41;4.72;;;1.50;;
67065;SDS011;53978;43.846;25.952;2022-08-01T14:52:07;3.92;;;1.88;;
67065;SDS011;53978;43.846;25.952;2022-08-01T14:54:32;1.17;;;1.08;;
67065;SDS011;53978;43.846;25.952;2022-08-01T14:56:58;2.65;;;1.30;;
67065;SDS011;53978;43.846;25.952;2022-08-01T14:59:23;1.80;;;1.17;;
67065;SDS011;53978;43.846;25.952;2022-08-01T15:01:49;4.40;;;1.50;;
67065;SDS011;53978;43.846;25.952;2022-08-01T15:04:14;1.77;;;1.35;;
67065;SDS011;53978;43.846;25.952;2022-08-01T15:06:42;1.50;;;1.30;;
67065;SDS011;53978;43.846;25.952;2022-08-01T15:09:07;2.80;;;1.40;;
67065;SDS011;53978;43.846;25.952;2022-08-01T15:11:32;1.25;;;1.13;;
67065;SDS011;53978;43.846;25.952;2022-08-01T15:13:58;1.38;;;1.27;;
67065;SDS011;53978;43.846;25.952;2022-08-01T15:16:42;1.95;;;1.40;;
67065;SDS011;53978;43.846;25.952;2022-08-01T15:19:07;1.48;;;1.10;;